createdAt,value
2018-02-08T00:01:06.854Z,99510.95
2018-02-08T00:03:34.418Z,99509.70
2018-02-08T00:06:02.016Z,99503.51
2018-02-08T00:08:29.629Z,99498.73
2018-02-08T00:10:57.254Z,99484.70
2018-02-08T00:13:24.817Z,99485.22
2018-02-08T00:15:52.381Z,99488.88
2018-02-08T00:18:20.065Z,99488.37
2018-02-08T00:20:47.625Z,99495.15
2018-02-08T00:23:15.181Z,99486.47
2018-02-08T00:25:42.748Z,99481.36
2018-02-08T00:28:10.313Z,99482.86
2018-02-08T00:30:37.978Z,99481.55
2018-02-08T00:33:05.576Z,99479.19
2018-02-08T00:35:33.137Z,99469.98
2018-02-08T00:38:00.702Z,99462.45
2018-02-08T00:40:28.273Z,99448.34
2018-02-08T00:42:55.907Z,99450.52
2018-02-08T00:45:23.536Z,99434.88
2018-02-08T00:47:51.098Z,99432.12
2018-02-08T00:50:18.662Z,99436.55
2018-02-08T00:52:46.221Z,99445.22
2018-02-08T00:55:13.850Z,99442.96
2018-02-08T00:57:41.428Z,99432.34
2018-02-08T01:00:08.995Z,99439.61
2018-02-08T01:02:36.560Z,99440.39
2018-02-08T01:05:04.168Z,99440.66
2018-02-08T01:07:31.771Z,99436.05
2018-02-08T01:09:59.343Z,99446.50
2018-02-08T01:12:27.016Z,99443.16
2018-02-08T01:14:54.635Z,99456.67
2018-02-08T01:17:22.194Z,99447.55
2018-02-08T01:19:49.770Z,99448.77
2018-02-08T01:22:17.331Z,99444.53
2018-02-08T01:24:44.959Z,99443.55
2018-02-08T01:27:12.518Z,99451.91
2018-02-08T01:29:40.198Z,99450.73
2018-02-08T01:32:07.758Z,99439.98
2018-02-08T01:34:35.319Z,99443.77
2018-02-08T01:37:02.889Z,99440.61
2018-02-08T01:39:30.506Z,99464.50
2018-02-08T01:41:58.123Z,99469.98
2018-02-08T01:44:25.672Z,99480.48
2018-02-08T01:46:53.283Z,99480.20
2018-02-08T01:49:32.627Z,99485.95
2018-02-08T01:52:00.191Z,99481.19
2018-02-08T01:54:27.757Z,99495.20
2018-02-08T01:56:55.300Z,99496.67
2018-02-08T01:59:22.866Z,99510.08
2018-02-08T02:01:50.427Z,99515.90
2018-02-08T02:04:18.111Z,99545.00
2018-02-08T02:06:45.682Z,99567.80
2018-02-08T02:09:13.306Z,99580.19
2018-02-08T02:11:40.891Z,99589.61
2018-02-08T02:14:08.510Z,99591.16
2018-02-08T02:16:36.073Z,99587.02
2018-02-08T02:19:03.663Z,99599.98
2018-02-08T02:21:31.286Z,99601.59
2018-02-08T02:23:58.910Z,99630.36
2018-02-08T02:26:26.530Z,99630.77
2018-02-08T02:28:54.099Z,99626.46
2018-02-08T02:31:21.665Z,99619.55
2018-02-08T02:33:49.234Z,99612.49
2018-02-08T02:36:16.811Z,99610.42
2018-02-08T02:38:44.487Z,99600.03
2018-02-08T02:41:12.103Z,99585.81
2018-02-08T02:43:39.672Z,99594.87
2018-02-08T02:46:07.239Z,99584.56
2018-02-08T02:48:34.802Z,99598.63
2018-02-08T02:51:02.434Z,99613.95
2018-02-08T02:53:30.059Z,99621.23
2018-02-08T02:55:57.675Z,99625.43
2018-02-08T02:58:25.236Z,99619.77
2018-02-08T03:00:52.813Z,99625.16
2018-02-08T03:03:20.396Z,99605.47
2018-02-08T03:05:47.967Z,99619.36
2018-02-08T03:08:15.539Z,99625.23
2018-02-08T03:10:43.103Z,99603.90
2018-02-08T03:13:10.734Z,99589.09
2018-02-08T03:15:38.345Z,99584.69
2018-02-08T03:18:06.938Z,99592.81
2018-02-08T03:20:34.586Z,99601.91
2018-02-08T03:23:02.186Z,99588.39
2018-02-08T03:25:29.763Z,99589.86
2018-02-08T03:27:57.329Z,99586.77
2018-02-08T03:30:25.799Z,99577.37
2018-02-08T03:32:53.418Z,99568.47
2018-02-08T03:35:20.977Z,99548.86
2018-02-08T03:37:48.607Z,99561.42
2018-02-08T03:40:16.227Z,99561.69
2018-02-08T03:42:43.835Z,99561.42
2018-02-08T03:45:11.400Z,99563.50
2018-02-08T03:47:39.017Z,99554.88
2018-02-08T03:50:06.582Z,99545.41
2018-02-08T03:52:34.206Z,99533.76
2018-02-08T03:55:01.759Z,99529.16
2018-02-08T03:57:29.321Z,99534.81
2018-02-08T03:59:56.894Z,99548.41
2018-02-08T04:02:24.466Z,99526.75
2018-02-08T04:04:52.085Z,99516.61
2018-02-08T04:07:19.650Z,99499.27
2018-02-08T04:09:47.280Z,99488.19
2018-02-08T04:12:14.915Z,99480.05
2018-02-08T04:14:42.474Z,99489.95
2018-02-08T04:17:10.037Z,99490.87
2018-02-08T04:19:37.594Z,99499.11
2018-02-08T04:22:05.199Z,99490.64
2018-02-08T04:24:32.758Z,99466.97
2018-02-08T04:27:00.379Z,99475.24
2018-02-08T04:29:28.011Z,99503.67
2018-02-08T04:31:55.582Z,99482.35
2018-02-08T04:34:23.149Z,99443.47
2018-02-08T04:36:50.717Z,99452.08
2018-02-08T04:39:30.137Z,99443.66
2018-02-08T04:42:09.598Z,99459.31
2018-02-08T04:44:49.013Z,99437.03
2018-02-08T04:50:38.506Z,99465.58
2018-02-08T04:53:06.064Z,99474.78
2018-02-08T04:55:33.618Z,99486.55
2018-02-08T04:58:01.178Z,99496.61
2018-02-08T05:00:28.747Z,99472.27
2018-02-08T05:02:58.204Z,99483.50
2018-02-08T05:05:25.780Z,99484.12
2018-02-08T05:07:53.354Z,99461.52
2018-02-08T05:10:20.988Z,99458.25
2018-02-08T05:12:48.618Z,99469.73
2018-02-08T05:15:16.261Z,99489.61
2018-02-08T05:17:43.826Z,99492.26
2018-02-08T05:20:11.401Z,99505.33
2018-02-08T05:22:38.976Z,99514.66
2018-02-08T05:25:06.535Z,99513.67
2018-02-08T05:27:34.106Z,99513.19
2018-02-08T05:30:01.741Z,99522.61
2018-02-08T05:32:29.374Z,99537.36
2018-02-08T05:34:56.935Z,99540.42
2018-02-08T05:37:24.505Z,99555.80
2018-02-08T05:39:52.069Z,99562.45
2018-02-08T05:42:19.620Z,99559.99
2018-02-08T05:44:47.301Z,99562.68
2018-02-08T05:47:14.884Z,99561.97
2018-02-08T05:49:42.446Z,99563.59
2018-02-08T05:52:10.014Z,99576.55
2018-02-08T05:54:37.683Z,99574.87
2018-02-08T05:57:05.342Z,99560.02
2018-02-08T05:59:32.926Z,99549.91
2018-02-08T06:02:00.850Z,99560.75
2018-02-08T06:04:28.445Z,99573.95
2018-02-08T06:06:56.085Z,99573.79
2018-02-08T06:09:23.820Z,99556.09
2018-02-08T06:11:51.459Z,99548.30
2018-02-08T06:14:19.025Z,99563.59
2018-02-08T06:16:46.614Z,99579.92
2018-02-08T06:19:14.161Z,99577.50
2018-02-08T06:21:41.862Z,99564.16
2018-02-08T06:24:09.417Z,99570.22
2018-02-08T06:26:37.069Z,99585.09
2018-02-08T06:29:04.653Z,99579.60
2018-02-08T06:31:32.232Z,99565.48
2018-02-08T06:33:59.914Z,99560.37
2018-02-08T06:36:27.489Z,99566.77
2018-02-08T06:38:55.052Z,99561.35
2018-02-08T06:41:22.627Z,99563.62
2018-02-08T06:43:50.195Z,99564.63
2018-02-08T06:46:17.820Z,99573.17
2018-02-08T06:48:45.374Z,99582.94
2018-02-08T06:51:12.940Z,99587.36
2018-02-08T06:53:40.515Z,99579.59
2018-02-08T06:56:08.140Z,99582.00
2018-02-08T06:58:35.777Z,99575.07
2018-02-08T07:01:03.417Z,99572.05
2018-02-08T07:03:31.003Z,99586.38
2018-02-08T07:05:58.592Z,99571.33
2018-02-08T07:08:26.226Z,99570.83
2018-02-08T07:10:53.807Z,99567.47
2018-02-08T07:13:21.426Z,99572.73
2018-02-08T07:15:48.998Z,99569.20
2018-02-08T07:18:16.636Z,99561.45
2018-02-08T07:20:44.305Z,99565.38
2018-02-08T07:23:11.942Z,99561.63
2018-02-08T07:25:39.500Z,99570.52
2018-02-08T07:28:07.134Z,99569.80
2018-02-08T07:30:34.690Z,99570.27
2018-02-08T07:33:02.303Z,99580.33
2018-02-08T07:35:29.865Z,99581.84
2018-02-08T07:37:57.423Z,99571.08
2018-02-08T07:40:25.076Z,99577.59
2018-02-08T07:42:52.694Z,99576.50
2018-02-08T07:45:20.372Z,99572.88
2018-02-08T07:47:47.922Z,99563.75
2018-02-08T07:50:15.487Z,99565.40
2018-02-08T07:52:43.072Z,99568.58
2018-02-08T07:55:10.633Z,99565.89
2018-02-08T07:57:38.258Z,99558.14
2018-02-08T08:00:05.817Z,99559.10
2018-02-08T08:02:33.377Z,99558.02
2018-02-08T08:05:00.959Z,99558.30
2018-02-08T08:07:28.537Z,99566.09
2018-02-08T08:09:56.170Z,99563.05
2018-02-08T08:12:23.794Z,99569.33
2018-02-08T08:14:51.357Z,99571.55
2018-02-08T08:17:18.995Z,99565.17
2018-02-08T08:19:46.534Z,99571.92
2018-02-08T08:22:14.310Z,99573.22
2018-02-08T08:24:41.880Z,99578.38
2018-02-08T08:27:09.484Z,99574.72
2018-02-08T08:29:37.116Z,99573.17
2018-02-08T08:32:04.743Z,99575.30
2018-02-08T08:34:32.361Z,99572.13
2018-02-08T08:36:59.929Z,99573.23
2018-02-08T08:39:27.520Z,99573.38
2018-02-08T08:41:55.094Z,99572.71
2018-02-08T08:44:22.654Z,99573.72
2018-02-08T08:46:50.330Z,99566.16
2018-02-08T08:49:17.894Z,99567.63
2018-02-08T08:51:45.458Z,99565.61
2018-02-08T08:54:13.032Z,99559.86
2018-02-08T08:56:40.600Z,99570.88
2018-02-08T08:59:08.226Z,99561.84
2018-02-08T09:01:35.831Z,99560.00
2018-02-08T09:04:03.394Z,99562.47
2018-02-08T09:06:30.984Z,99558.05
2018-02-08T09:08:58.615Z,99553.89
2018-02-08T09:11:26.356Z,99543.71
2018-02-08T09:13:53.919Z,99551.55
2018-02-08T09:16:21.489Z,99542.98
2018-02-08T09:18:49.143Z,99545.97
2018-02-08T09:21:16.722Z,99549.95
2018-02-08T09:23:44.395Z,99550.67
2018-02-08T09:26:11.966Z,99555.75
2018-02-08T09:28:39.576Z,99557.83
2018-02-08T09:31:07.157Z,99558.39
2018-02-08T09:33:34.788Z,99549.61
2018-02-08T09:36:02.412Z,99550.77
2018-02-08T09:38:29.990Z,99541.53
2018-02-08T09:40:57.573Z,99541.05
2018-02-08T09:43:25.210Z,99537.89
2018-02-08T09:45:52.774Z,99537.71
2018-02-08T09:48:20.462Z,99531.89
2018-02-08T09:50:48.095Z,99533.23
2018-02-08T09:53:15.742Z,99533.66
2018-02-08T09:55:43.321Z,99531.22
2018-02-08T09:58:10.950Z,99536.64
2018-02-08T10:00:38.578Z,99535.67
2018-02-08T10:03:06.160Z,99527.89
2018-02-08T10:05:33.796Z,99532.98
2018-02-08T10:08:01.397Z,99536.84
2018-02-08T10:10:28.967Z,99524.38
2018-02-08T10:12:56.653Z,99528.41
2018-02-08T10:15:24.202Z,99522.08
2018-02-08T10:17:51.832Z,99523.20
2018-02-08T10:20:19.412Z,99518.45
2018-02-08T10:22:46.995Z,99516.78
2018-02-08T10:25:14.620Z,99516.43
2018-02-08T10:27:42.260Z,99504.59
2018-02-08T10:30:09.837Z,99505.50
2018-02-08T10:32:37.415Z,99488.82
2018-02-08T10:35:05.000Z,99491.49
2018-02-08T10:37:32.702Z,99485.67
2018-02-08T10:40:00.267Z,99487.99
2018-02-08T10:42:27.891Z,99485.75
2018-02-08T10:44:55.466Z,99489.19
2018-02-08T10:47:23.098Z,99489.16
2018-02-08T10:49:50.779Z,99489.98
2018-02-08T10:52:18.369Z,99486.86
2018-02-08T10:54:45.937Z,99486.81
2018-02-08T10:57:13.506Z,99483.21
2018-02-08T10:59:41.066Z,99485.64
2018-02-08T11:02:08.681Z,99478.20
2018-02-08T11:04:36.245Z,99478.95
2018-02-08T11:07:03.826Z,99478.59
2018-02-08T11:09:31.459Z,99470.42
2018-02-08T11:11:59.035Z,99469.30
2018-02-08T11:14:26.703Z,99469.08
2018-02-08T11:16:54.323Z,99468.16
2018-02-08T11:19:21.891Z,99466.63
2018-02-08T11:21:49.466Z,99469.14
2018-02-08T11:24:17.094Z,99466.36
2018-02-08T11:26:44.858Z,99473.15
2018-02-08T11:29:12.472Z,99461.32
2018-02-08T11:31:40.053Z,99463.14
2018-02-08T11:34:07.633Z,99455.20
2018-02-08T11:36:35.259Z,99455.41
2018-02-08T11:39:02.929Z,99455.25
2018-02-08T11:41:30.562Z,99448.41
2018-02-08T11:43:58.131Z,99449.48
2018-02-08T11:46:25.775Z,99442.52
2018-02-08T11:48:53.337Z,99444.61
2018-02-08T11:51:20.961Z,99435.22
2018-02-08T11:53:48.522Z,99435.84
2018-02-08T11:56:16.091Z,99442.68
2018-02-08T11:58:43.669Z,99445.88
2018-02-08T12:01:11.272Z,99437.33
2018-02-08T12:03:38.910Z,99438.35
2018-02-08T12:06:06.483Z,99434.47
2018-02-08T12:08:34.168Z,99430.37
2018-02-08T12:11:01.736Z,99449.79
2018-02-08T12:13:29.301Z,99445.64
2018-02-08T12:15:56.875Z,99441.75
2018-02-08T12:18:24.517Z,99443.83
2018-02-08T12:20:52.109Z,99448.66
2018-02-08T12:23:19.739Z,99443.63
2018-02-08T12:25:47.362Z,99447.27
2018-02-08T12:28:14.999Z,99455.34
2018-02-08T12:30:42.631Z,99451.31
2018-02-08T12:33:10.207Z,99454.63
2018-02-08T12:35:37.775Z,99461.74
2018-02-08T12:38:05.358Z,99459.81
2018-02-08T12:40:32.940Z,99460.84
2018-02-08T12:43:00.547Z,99452.95
2018-02-08T12:45:28.110Z,99454.20
2018-02-08T12:47:55.681Z,99456.02
2018-02-08T12:50:23.253Z,99455.31
2018-02-08T12:52:50.828Z,99456.33
2018-02-08T12:55:18.465Z,99461.45
2018-02-08T12:57:46.112Z,99463.81
2018-02-08T13:00:13.739Z,99463.23
2018-02-08T13:02:41.316Z,99456.35
2018-02-08T13:05:08.886Z,99461.31
2018-02-08T13:07:36.534Z,99459.59
2018-02-08T13:10:04.145Z,99458.02
2018-02-08T13:12:31.726Z,99463.45
2018-02-08T13:14:59.355Z,99470.08
2018-02-08T13:17:27.050Z,99468.54
2018-02-08T13:19:54.621Z,99471.49
2018-02-08T13:22:22.230Z,99451.78
2018-02-08T13:24:49.877Z,99464.41
2018-02-08T13:27:17.991Z,99458.30
2018-02-08T13:29:45.569Z,99459.22
2018-02-08T13:32:13.252Z,99461.47
2018-02-08T13:34:41.030Z,99462.50
2018-02-08T13:37:08.693Z,99459.02
2018-02-08T13:39:38.830Z,99461.78
2018-02-08T13:42:10.470Z,99465.80
2018-02-08T13:44:38.101Z,99450.86
2018-02-08T13:47:06.221Z,99461.06
2018-02-08T13:49:38.738Z,99459.14
2018-02-08T13:52:09.112Z,99462.92
2018-02-08T13:54:41.334Z,99464.45
2018-02-08T13:57:16.401Z,99461.02
2018-02-08T13:59:54.763Z,99455.77
2018-02-08T14:02:22.424Z,99455.08
2018-02-08T14:04:49.998Z,99454.77
2018-02-08T14:07:17.678Z,99452.41
2018-02-08T14:09:45.234Z,99459.02
2018-02-08T14:12:13.507Z,99454.86
2018-02-08T14:14:42.013Z,99451.73
2018-02-08T14:17:09.578Z,99460.87
2018-02-08T14:19:37.153Z,99464.57
2018-02-08T14:22:04.723Z,99466.65
2018-02-08T14:24:32.398Z,99458.70
2018-02-08T14:27:00.002Z,99464.66
2018-02-08T14:29:27.634Z,99462.36
2018-02-08T14:31:55.207Z,99456.34
2018-02-08T14:34:23.492Z,99465.50
2018-02-08T14:36:51.196Z,99467.67
2018-02-08T14:39:18.777Z,99471.03
2018-02-08T14:41:47.515Z,99474.20
2018-02-08T14:44:15.083Z,99475.70
2018-02-08T14:46:42.652Z,99474.94
2018-02-08T14:49:11.188Z,99476.91
2018-02-08T14:51:38.826Z,99487.97
2018-02-08T14:54:06.402Z,99481.11
2018-02-08T14:56:34.946Z,99476.40
2018-02-08T14:59:02.778Z,99474.59
2018-02-08T15:01:30.359Z,99485.97
2018-02-08T15:03:58.711Z,99487.75
2018-02-08T15:06:26.293Z,99504.38
2018-02-08T15:08:53.883Z,99501.70
2018-02-08T15:11:21.508Z,99507.77
2018-02-08T15:13:49.116Z,99508.31
2018-02-08T15:16:16.696Z,99518.05
2018-02-08T15:18:44.339Z,99517.34
2018-02-08T15:21:12.538Z,99522.08
2018-02-08T15:23:40.293Z,99518.72
2018-02-08T15:26:07.872Z,99532.88
2018-02-08T15:28:35.506Z,99543.44
2018-02-08T15:31:03.067Z,99542.44
2018-02-08T15:33:31.410Z,99551.02
2018-02-08T15:35:59.078Z,99551.56
2018-02-08T15:38:26.651Z,99575.64
2018-02-08T15:40:54.227Z,99563.33
2018-02-08T15:43:21.867Z,99567.88
2018-02-08T15:45:49.494Z,99580.53
2018-02-08T15:48:17.170Z,99582.56
2018-02-08T15:50:44.742Z,99564.90
2018-02-08T15:53:12.291Z,99566.16
2018-02-08T15:55:39.950Z,99574.86
2018-02-08T15:58:07.510Z,99585.83
2018-02-08T16:00:35.215Z,99589.17
2018-02-08T16:03:02.792Z,99587.25
2018-02-08T16:05:30.361Z,99579.13
2018-02-08T16:07:58.954Z,99584.27
2018-02-08T16:10:27.618Z,99584.59
2018-02-08T16:12:55.370Z,99587.19
2018-02-08T16:15:22.994Z,99593.12
2018-02-08T16:17:50.671Z,99600.23
2018-02-08T16:20:18.240Z,99597.81
2018-02-08T16:22:45.874Z,99608.44
2018-02-08T16:25:13.532Z,99595.71
2018-02-08T16:27:41.098Z,99603.16
2018-02-08T16:30:08.667Z,99606.68
2018-02-08T16:32:36.360Z,99607.52
2018-02-08T16:35:03.982Z,99615.97
2018-02-08T16:37:31.618Z,99623.65
2018-02-08T16:39:59.221Z,99633.06
2018-02-08T16:42:26.818Z,99624.98
2018-02-08T16:44:54.467Z,99630.54
2018-02-08T16:47:22.045Z,99626.67
2018-02-08T16:49:49.658Z,99635.07
2018-02-08T16:52:17.214Z,99631.12
2018-02-08T16:54:44.882Z,99639.74
2018-02-08T16:57:12.465Z,99643.01
2018-02-08T16:59:40.040Z,99644.70
2018-02-08T17:02:08.342Z,99623.93
2018-02-08T17:04:35.951Z,99609.80
2018-02-08T17:07:03.516Z,99628.88
2018-02-08T17:09:31.202Z,99633.66
2018-02-08T17:11:58.783Z,99612.66
2018-02-08T17:14:26.403Z,99618.43
2018-02-08T17:16:54.037Z,99609.70
2018-02-08T17:19:21.598Z,99614.30
2018-02-08T17:21:49.183Z,99606.27
2018-02-08T17:24:16.749Z,99597.59
2018-02-08T17:26:44.431Z,99587.03
2018-02-08T17:29:11.993Z,99572.81
2018-02-08T17:31:39.618Z,99559.84
2018-02-08T17:34:07.190Z,99545.20
2018-02-08T17:36:34.896Z,99545.13
2018-02-08T17:39:02.712Z,99551.47
2018-02-08T17:41:30.290Z,99552.33
2018-02-08T17:43:57.849Z,99554.09
2018-02-08T17:46:25.486Z,99556.93
2018-02-08T17:48:53.120Z,99562.38
2018-02-08T17:51:20.802Z,99576.09
2018-02-08T17:53:48.462Z,99576.08
2018-02-08T17:56:16.042Z,99575.41
2018-02-08T17:58:43.699Z,99579.27
2018-02-08T18:01:12.355Z,99581.81
2018-02-08T18:03:40.057Z,99573.28
2018-02-08T18:06:08.481Z,99580.69
2018-02-08T18:08:36.062Z,99573.56
2018-02-08T18:11:03.696Z,99580.10
2018-02-08T18:13:31.425Z,99570.80
2018-02-08T18:15:59.078Z,99581.02
2018-02-08T18:18:26.704Z,99573.22
2018-02-08T18:20:54.322Z,99577.69
2018-02-08T18:23:21.894Z,99579.64
2018-02-08T18:25:49.472Z,99572.74
2018-02-08T18:28:17.172Z,99568.62
2018-02-08T18:30:44.735Z,99565.15
2018-02-08T18:33:12.309Z,99575.86
2018-02-08T18:35:39.891Z,99580.51
2018-02-08T18:38:07.466Z,99574.89
2018-02-08T18:40:35.087Z,99577.30
2018-02-08T18:43:02.719Z,99578.59
2018-02-08T18:45:30.534Z,99582.92
2018-02-08T18:47:59.065Z,99584.98
2018-02-08T18:50:26.635Z,99580.48
2018-02-08T18:52:54.266Z,99573.39
2018-02-08T18:55:21.879Z,99573.13
2018-02-08T18:57:49.450Z,99569.58
2018-02-08T19:00:17.037Z,99575.17
2018-02-08T19:02:44.675Z,99572.52
2018-02-08T19:05:12.299Z,99573.84
2018-02-08T19:07:40.306Z,99568.68
2018-02-08T19:10:09.446Z,99572.75
2018-02-08T19:12:37.026Z,99566.27
2018-02-08T19:15:05.199Z,99566.07
2018-02-08T19:17:32.763Z,99565.53
2018-02-08T19:20:00.356Z,99564.49
2018-02-08T19:22:28.020Z,99574.16
2018-02-08T19:24:55.598Z,99577.19
2018-02-08T19:27:23.175Z,99586.94
2018-02-08T19:29:50.781Z,99588.19
2018-02-08T19:32:18.374Z,99601.34
2018-02-08T19:34:45.995Z,99611.66
2018-02-08T19:37:13.570Z,99610.58
2018-02-08T19:39:41.215Z,99613.75
2018-02-08T19:42:08.813Z,99620.55
2018-02-08T19:44:36.398Z,99618.84
2018-02-08T19:47:04.037Z,99620.42
2018-02-08T19:49:31.618Z,99623.63
2018-02-08T19:52:00.194Z,99624.98
2018-02-08T19:54:27.783Z,99631.83
2018-02-08T19:56:55.451Z,99635.92
2018-02-08T19:59:23.037Z,99632.82
2018-02-08T20:01:50.616Z,99629.39
2018-02-08T20:04:18.205Z,99625.46
2018-02-08T20:06:45.806Z,99626.08
2018-02-08T20:09:13.378Z,99622.30
2018-02-08T20:11:40.986Z,99633.53
2018-02-08T20:14:14.134Z,99635.28
2018-02-08T20:16:41.739Z,99638.30
2018-02-08T20:19:09.332Z,99647.13
2018-02-08T20:21:36.901Z,99659.15
2018-02-08T20:24:04.491Z,99666.66
2018-02-08T20:26:32.067Z,99670.80
2018-02-08T20:28:59.710Z,99677.78
2018-02-08T20:31:29.930Z,99680.45
2018-02-08T20:33:57.511Z,99667.02
2018-02-08T20:36:25.094Z,99664.28
2018-02-08T20:38:52.667Z,99698.78
2018-02-08T20:41:20.285Z,99703.09
2018-02-08T20:43:47.935Z,99697.54
2018-02-08T20:46:15.522Z,99691.72
2018-02-08T20:48:43.094Z,99699.28
2018-02-08T20:51:10.731Z,99711.29
2018-02-08T20:53:38.364Z,99714.87
2018-02-08T20:56:05.986Z,99730.75
2018-02-08T20:58:33.615Z,99747.58
2018-02-08T21:01:01.212Z,99748.53
2018-02-08T21:03:28.762Z,99752.81
2018-02-08T21:05:56.308Z,99749.34
2018-02-08T21:08:23.938Z,99760.24
2018-02-08T21:10:51.565Z,99762.88
2018-02-08T21:13:19.208Z,99764.70
2018-02-08T21:15:46.774Z,99766.02
2018-02-08T21:18:14.435Z,99762.30
2018-02-08T21:20:42.010Z,99764.80
2018-02-08T21:23:09.647Z,99764.73
2018-02-08T21:25:37.283Z,99772.19
2018-02-08T21:28:04.861Z,99772.22
2018-02-08T21:30:32.496Z,99774.31
2018-02-08T21:33:00.142Z,99769.73
2018-02-08T21:35:27.768Z,99758.53
2018-02-08T21:37:55.346Z,99764.37
2018-02-08T21:40:22.913Z,99772.37
2018-02-08T21:42:50.540Z,99777.92
2018-02-08T21:45:18.146Z,99786.13
2018-02-08T21:47:45.711Z,99801.27
2018-02-08T21:50:13.341Z,99800.39
2018-02-08T21:52:40.989Z,99799.25
2018-02-08T21:55:08.553Z,99792.38
2018-02-08T21:57:36.204Z,99804.88
2018-02-08T22:00:03.770Z,99805.23
2018-02-08T22:02:31.483Z,99811.22
2018-02-08T22:04:59.151Z,99815.80
2018-02-08T22:07:26.731Z,99815.92
2018-02-08T22:09:54.305Z,99807.41
2018-02-08T22:12:21.930Z,99808.73
2018-02-08T22:14:49.546Z,99807.06
2018-02-08T22:17:17.173Z,99805.66
2018-02-08T22:19:44.742Z,99794.03
2018-02-08T22:22:12.319Z,99792.70
2018-02-08T22:24:39.938Z,99798.11
2018-02-08T22:27:07.510Z,99798.28
2018-02-08T22:29:35.134Z,99794.59
2018-02-08T22:32:02.818Z,99783.41
2018-02-08T22:34:30.460Z,99789.55
2018-02-08T22:36:58.022Z,99789.19
2018-02-08T22:39:25.650Z,99795.30
2018-02-08T22:41:53.216Z,99790.84
2018-02-08T22:44:20.916Z,99794.08
2018-02-08T22:46:48.550Z,99794.56
2018-02-08T22:49:16.177Z,99800.18
2018-02-08T22:51:43.802Z,99799.34
2018-02-08T22:54:11.370Z,99798.44
2018-02-08T22:56:38.994Z,99794.98
2018-02-08T22:59:06.569Z,99791.59
2018-02-08T23:01:34.163Z,99788.23
2018-02-08T23:04:01.795Z,99793.78
2018-02-08T23:06:29.357Z,99804.44
2018-02-08T23:08:56.985Z,99790.16
2018-02-08T23:11:24.554Z,99789.55
2018-02-08T23:13:52.126Z,99786.18
2018-02-08T23:16:19.709Z,99777.96
2018-02-08T23:18:47.269Z,99774.24
2018-02-08T23:21:14.925Z,99771.96
2018-02-08T23:23:42.551Z,99777.95
2018-02-08T23:26:10.110Z,99781.26
2018-02-08T23:28:37.760Z,99779.51
2018-02-08T23:31:05.438Z,99782.70
2018-02-08T23:33:33.057Z,99784.42
2018-02-08T23:36:00.623Z,99783.73
2018-02-08T23:38:28.248Z,99790.12
2018-02-08T23:40:55.808Z,99788.37
2018-02-08T23:43:23.418Z,99783.23
2018-02-08T23:45:51.094Z,99777.00
2018-02-08T23:48:18.745Z,99775.27
2018-02-08T23:50:46.330Z,99772.19
2018-02-08T23:53:13.959Z,99773.39
2018-02-08T23:55:41.535Z,99777.05
2018-02-08T23:58:09.150Z,99777.59
